20PA weather

Reichdrill Heliport
Philipsburg, Pennsylvania, United States

Public forecast

Using degrees Fahrenheit for public forecast. Weather courtesy of forecast.io.

METAR (pilot weather report)

Closest report is Clearfield Lawrence Airport, 12.0 nm (22.3 km) NW. Retrieved 2019/09/22 12:54 UTC (18 minutes ago):

KFIG 221254Z AUTO 00000KT M1/4SM FG VV002 17/16 A3022 RMK AO2 SLP227 T01670161

TAF (pilot weather forecast)

Closest forecast is University Park Airport, 17.6 nm (32.6 km) E. Retrieved 2019/09/22 12:39 UTC (33 minutes ago):

TAF KUNV 221136Z 2212/2312 00000KT P6SM BCFG SKC FM221300 23004KT P6SM FEW250 FM221800 21005KT P6SM BKN050 FM230000 22003KT P6SM SCT100